createdAt,value
2023-04-30T00:00:18.842Z,62.84
2023-04-30T00:01:19.086Z,62.95
2023-04-30T00:02:18.875Z,62.95
2023-04-30T00:03:19.009Z,62.63
2023-04-30T00:04:18.854Z,63.66
2023-04-30T00:05:18.800Z,63.45
2023-04-30T00:06:18.831Z,63.25
2023-04-30T00:07:18.762Z,63.15
2023-04-30T00:08:18.793Z,63.04
2023-04-30T00:09:18.742Z,63.25
2023-04-30T00:10:18.721Z,63.25
2023-04-30T00:11:18.724Z,62.95
2023-04-30T00:12:18.739Z,62.95
2023-04-30T00:13:18.692Z,62.84
2023-04-30T00:14:18.691Z,63.04
2023-04-30T00:15:18.673Z,63.66
2023-04-30T00:16:18.713Z,63.79
2023-04-30T00:17:18.651Z,63.48
2023-04-30T00:18:18.662Z,63.48
2023-04-30T00:19:18.627Z,63.66
2023-04-30T00:20:18.623Z,63.48
2023-04-30T00:21:18.623Z,63.79
2023-04-30T00:22:18.600Z,63.69
2023-04-30T00:23:18.596Z,62.98
2023-04-30T00:24:18.587Z,62.87
2023-04-30T00:25:18.565Z,63.28
2023-04-30T00:26:18.548Z,63.07
2023-04-30T00:27:18.539Z,62.98
2023-04-30T00:28:18.551Z,63.48
2023-04-30T00:29:18.531Z,63.69
2023-04-30T00:30:18.512Z,63.18
2023-04-30T00:31:18.505Z,63.18
2023-04-30T00:32:18.611Z,62.90
2023-04-30T00:33:18.474Z,63.00
2023-04-30T00:34:18.569Z,62.98
2023-04-30T00:35:18.455Z,62.90
2023-04-30T00:36:18.452Z,63.00
2023-04-30T00:37:18.616Z,63.00
2023-04-30T00:38:18.497Z,63.82
2023-04-30T00:39:18.460Z,63.82
2023-04-30T00:40:18.402Z,63.62
2023-04-30T00:41:18.437Z,63.10
2023-04-30T00:42:18.386Z,62.90
2023-04-30T00:43:18.412Z,63.41
2023-04-30T00:44:18.359Z,63.10
2023-04-30T00:45:18.347Z,63.82
2023-04-30T00:46:18.396Z,63.31
2023-04-30T00:47:18.345Z,62.80
2023-04-30T00:48:18.316Z,63.31
2023-04-30T00:49:18.322Z,63.00
2023-04-30T00:50:18.288Z,63.41
2023-04-30T00:51:18.290Z,63.51
2023-04-30T00:52:18.298Z,63.21
2023-04-30T00:53:18.279Z,63.62
2023-04-30T00:54:18.248Z,63.62
2023-04-30T00:55:18.235Z,63.72
2023-04-30T00:56:18.229Z,64.03
2023-04-30T00:57:18.240Z,63.82
2023-04-30T00:58:18.204Z,63.92
2023-04-30T00:59:18.194Z,64.33
2023-04-30T01:00:18.194Z,64.54
2023-04-30T01:01:18.212Z,64.36
2023-04-30T01:02:18.276Z,64.06
2023-04-30T01:03:18.226Z,64.06
2023-04-30T01:04:18.137Z,63.92
2023-04-30T01:05:18.126Z,64.84
2023-04-30T01:06:18.204Z,64.87
2023-04-30T01:07:18.123Z,64.36
2023-04-30T01:08:18.109Z,64.47
2023-04-30T01:09:18.100Z,64.47
2023-04-30T01:10:18.080Z,64.98
2023-04-30T01:11:18.070Z,65.28
2023-04-30T01:12:18.087Z,65.28
2023-04-30T01:13:18.036Z,65.59
2023-04-30T01:14:18.044Z,65.28
2023-04-30T01:15:18.019Z,65.49
2023-04-30T01:16:18.037Z,65.83
2023-04-30T01:17:18.023Z,65.62
2023-04-30T01:18:18.113Z,66.24
2023-04-30T01:19:17.977Z,66.44
2023-04-30T01:20:17.984Z,66.85
2023-04-30T01:21:17.950Z,66.27
2023-04-30T01:22:17.947Z,66.44
2023-04-30T01:23:17.955Z,66.54
2023-04-30T01:24:17.921Z,66.67
2023-04-30T01:25:17.933Z,66.57
2023-04-30T01:26:17.902Z,66.67
2023-04-30T01:27:17.901Z,67.49
2023-04-30T01:28:17.901Z,66.78
2023-04-30T01:29:17.868Z,67.49
2023-04-30T01:30:17.858Z,67.19
2023-04-30T01:31:17.875Z,66.98
2023-04-30T01:32:17.861Z,67.29
2023-04-30T01:33:17.838Z,66.47
2023-04-30T01:34:17.814Z,67.08
2023-04-30T01:35:17.807Z,66.98
2023-04-30T01:36:17.792Z,66.98
2023-04-30T01:37:17.814Z,67.29
2023-04-30T01:38:17.772Z,67.29
2023-04-30T01:39:17.796Z,67.40
2023-04-30T01:40:17.749Z,66.78
2023-04-30T01:41:18.293Z,66.67
2023-04-30T01:42:17.750Z,67.29
2023-04-30T01:43:17.727Z,67.08
2023-04-30T01:44:17.744Z,67.40
2023-04-30T01:45:17.714Z,67.29
2023-04-30T01:46:17.760Z,67.70
2023-04-30T01:47:17.681Z,67.73
2023-04-30T01:48:17.671Z,67.83
2023-04-30T01:49:17.713Z,67.73
2023-04-30T01:50:17.662Z,67.52
2023-04-30T01:51:17.639Z,67.83
2023-04-30T01:52:17.666Z,67.63
2023-04-30T01:53:17.620Z,68.35
2023-04-30T01:54:17.618Z,68.04
2023-04-30T01:55:17.592Z,68.14
2023-04-30T01:56:17.586Z,68.14
2023-04-30T01:57:17.600Z,68.04
2023-04-30T01:58:17.559Z,67.94
2023-04-30T01:59:17.557Z,68.04
2023-04-30T02:00:17.540Z,68.04
2023-04-30T02:01:17.578Z,68.35
2023-04-30T02:02:17.537Z,68.14
2023-04-30T02:03:17.561Z,68.45
2023-04-30T02:04:17.494Z,68.55
2023-04-30T02:05:17.484Z,68.04
2023-04-30T02:06:17.510Z,68.79
2023-04-30T02:07:17.507Z,68.59
2023-04-30T02:08:17.481Z,68.68
2023-04-30T02:09:17.449Z,68.68
2023-04-30T02:10:17.429Z,68.79
2023-04-30T02:11:17.414Z,68.79
2023-04-30T02:12:17.422Z,69.20
2023-04-30T02:13:17.416Z,69.20
2023-04-30T02:14:17.390Z,69.43
2023-04-30T02:15:17.370Z,69.43
2023-04-30T02:16:17.390Z,69.51
2023-04-30T02:17:17.380Z,69.71
2023-04-30T02:18:17.398Z,69.61
2023-04-30T02:19:17.354Z,69.40
2023-04-30T02:20:17.335Z,69.40
2023-04-30T02:21:17.309Z,68.41
2023-04-30T02:22:17.306Z,68.59
2023-04-30T02:23:17.285Z,68.41
2023-04-30T02:24:17.274Z,68.48
2023-04-30T02:25:17.263Z,68.38
2023-04-30T02:26:17.259Z,68.48
2023-04-30T02:27:17.271Z,68.59
2023-04-30T02:28:17.229Z,68.68
2023-04-30T02:29:17.403Z,68.89
2023-04-30T02:30:17.230Z,68.79
2023-04-30T02:31:17.214Z,68.68
2023-04-30T02:32:17.185Z,68.89
2023-04-30T02:33:17.172Z,68.79
2023-04-30T02:34:17.210Z,68.51
2023-04-30T02:35:17.149Z,68.68
2023-04-30T02:36:17.141Z,68.72
2023-04-30T02:37:17.160Z,68.51
2023-04-30T02:38:17.121Z,69.43
2023-04-30T02:39:17.138Z,69.23
2023-04-30T02:40:17.100Z,69.64
2023-04-30T02:41:17.090Z,69.54
2023-04-30T02:42:17.107Z,69.51
2023-04-30T02:43:17.064Z,69.23
2023-04-30T02:44:17.050Z,69.54
2023-04-30T02:45:17.052Z,69.54
2023-04-30T02:46:17.066Z,69.54
2023-04-30T02:47:17.048Z,70.08
2023-04-30T02:48:17.007Z,69.74
2023-04-30T02:49:17.000Z,69.88
2023-04-30T02:50:16.986Z,70.29
2023-04-30T02:51:16.978Z,70.08
2023-04-30T02:52:17.025Z,70.18
2023-04-30T02:53:16.951Z,70.39
2023-04-30T02:54:16.976Z,70.08
2023-04-30T02:55:16.942Z,69.98
2023-04-30T02:56:16.932Z,69.98
2023-04-30T02:57:16.934Z,70.50
2023-04-30T02:58:16.904Z,70.08
2023-04-30T02:59:16.887Z,70.39
2023-04-30T03:00:16.876Z,69.78
2023-04-30T03:01:16.924Z,70.18
2023-04-30T03:02:16.903Z,70.18
2023-04-30T03:03:16.945Z,70.70
2023-04-30T03:04:16.834Z,70.80
2023-04-30T03:05:16.823Z,70.90
2023-04-30T03:06:16.835Z,70.70
2023-04-30T03:07:16.804Z,70.60
2023-04-30T03:08:16.803Z,70.63
2023-04-30T03:09:16.781Z,70.63
2023-04-30T03:10:16.774Z,70.42
2023-04-30T03:11:16.759Z,70.70
2023-04-30T03:12:16.747Z,71.35
2023-04-30T03:13:16.755Z,70.63
2023-04-30T03:14:16.735Z,70.50
2023-04-30T03:15:16.722Z,70.42
2023-04-30T03:16:16.761Z,71.04
2023-04-30T03:17:24.523Z,70.42
2023-04-30T03:18:16.735Z,71.17
2023-04-30T03:19:16.707Z,71.59
2023-04-30T03:20:16.665Z,72.00
2023-04-30T03:21:16.654Z,72.92
2023-04-30T03:22:16.671Z,71.69
2023-04-30T03:23:16.630Z,72.10
2023-04-30T03:24:16.631Z,71.79
2023-04-30T03:25:16.621Z,72.20
2023-04-30T03:26:16.604Z,71.51
2023-04-30T03:27:16.591Z,72.20
2023-04-30T03:28:16.605Z,71.79
2023-04-30T03:29:16.569Z,72.00
2023-04-30T03:30:16.567Z,71.48
2023-04-30T03:31:16.555Z,71.48
2023-04-30T03:32:16.542Z,72.00
2023-04-30T03:33:16.585Z,72.20
2023-04-30T03:34:16.527Z,72.13
2023-04-30T03:35:16.526Z,71.93
2023-04-30T03:36:16.506Z,71.72
2023-04-30T03:37:16.485Z,72.13
2023-04-30T03:38:16.494Z,72.24
2023-04-30T03:39:16.461Z,72.13
2023-04-30T03:40:16.455Z,71.59
2023-04-30T03:41:16.447Z,72.44
2023-04-30T03:42:16.438Z,72.24
2023-04-30T03:43:16.435Z,72.51
2023-04-30T03:44:16.453Z,72.00
2023-04-30T03:45:16.399Z,71.79
2023-04-30T03:46:16.448Z,71.28
2023-04-30T03:47:16.382Z,71.38
2023-04-30T03:48:16.471Z,71.38
2023-04-30T03:49:16.376Z,71.59
2023-04-30T03:50:16.350Z,70.87
2023-04-30T03:51:16.346Z,71.38
2023-04-30T03:52:16.342Z,71.83
2023-04-30T03:53:16.314Z,72.78
2023-04-30T03:54:16.306Z,71.93
2023-04-30T03:55:16.293Z,71.83
2023-04-30T03:56:16.282Z,72.00
2023-04-30T03:57:16.303Z,71.51
2023-04-30T03:58:16.268Z,71.51
2023-04-30T03:59:16.252Z,72.10
2023-04-30T04:00:16.255Z,71.79
2023-04-30T04:01:16.233Z,71.59
2023-04-30T04:02:16.349Z,71.59
2023-04-30T04:03:16.276Z,71.38
2023-04-30T04:04:16.229Z,71.38
2023-04-30T04:05:16.218Z,71.25
2023-04-30T04:06:16.248Z,71.35
2023-04-30T04:07:16.167Z,71.14
2023-04-30T04:08:16.188Z,71.14
2023-04-30T04:09:16.169Z,71.45
2023-04-30T04:10:16.161Z,70.63
2023-04-30T04:11:16.131Z,70.70
2023-04-30T04:12:16.118Z,71.04
2023-04-30T04:13:16.103Z,70.70
2023-04-30T04:14:16.118Z,70.08
2023-04-30T04:15:16.081Z,70.05
2023-04-30T04:16:16.085Z,69.74
2023-04-30T04:17:16.061Z,69.33
2023-04-30T04:18:16.050Z,69.26
2023-04-30T04:19:16.107Z,69.54
2023-04-30T04:20:16.038Z,69.64
2023-04-30T04:21:16.037Z,69.64
2023-04-30T04:22:16.012Z,68.41
2023-04-30T04:23:16.021Z,68.89
2023-04-30T04:24:15.985Z,68.79
2023-04-30T04:25:15.979Z,68.59
2023-04-30T04:26:15.974Z,68.14
2023-04-30T04:27:15.958Z,67.43
2023-04-30T04:28:15.985Z,67.11
2023-04-30T04:29:15.939Z,67.63
2023-04-30T04:30:15.921Z,66.78
2023-04-30T04:31:15.943Z,66.47
2023-04-30T04:32:15.923Z,66.67
2023-04-30T04:33:15.928Z,66.37
2023-04-30T04:34:15.872Z,66.44
2023-04-30T04:35:15.863Z,66.64
2023-04-30T04:36:15.857Z,65.72
2023-04-30T04:37:15.861Z,65.62
2023-04-30T04:38:15.859Z,65.39
2023-04-30T04:39:15.827Z,65.49
2023-04-30T04:40:15.807Z,65.49
2023-04-30T04:41:15.801Z,65.05
2023-04-30T04:42:15.790Z,64.98
2023-04-30T04:43:15.792Z,64.54
2023-04-30T04:44:15.778Z,64.43
2023-04-30T04:45:15.774Z,64.64
2023-04-30T04:46:15.799Z,64.43
2023-04-30T04:47:15.736Z,63.92
2023-04-30T04:48:15.743Z,64.30
2023-04-30T04:49:15.713Z,64.00
2023-04-30T04:50:15.697Z,63.69
2023-04-30T04:51:15.700Z,63.56
2023-04-30T04:52:15.681Z,63.76
2023-04-30T04:53:15.789Z,63.04
2023-04-30T04:54:15.653Z,63.56
2023-04-30T04:55:15.641Z,63.25
2023-04-30T04:56:15.632Z,63.79
2023-04-30T04:57:15.635Z,63.28
2023-04-30T04:58:15.633Z,63.07
2023-04-30T04:59:15.601Z,62.98
2023-04-30T05:00:15.591Z,63.07
2023-04-30T05:01:15.629Z,63.45
2023-04-30T05:02:15.566Z,63.66
2023-04-30T05:03:15.683Z,62.77
2023-04-30T05:04:15.548Z,63.25
2023-04-30T05:05:15.546Z,63.45
2023-04-30T05:06:15.626Z,63.45
2023-04-30T05:07:15.517Z,63.35
2023-04-30T05:08:15.512Z,62.92
2023-04-30T05:09:15.516Z,61.90
2023-04-30T05:10:15.479Z,62.10
2023-04-30T05:11:15.930Z,61.90
2023-04-30T05:12:15.458Z,62.30
2023-04-30T05:13:15.475Z,61.58
2023-04-30T05:14:15.440Z,61.69
2023-04-30T05:15:15.429Z,61.90
2023-04-30T05:16:15.477Z,62.10
2023-04-30T05:17:15.411Z,62.61
2023-04-30T05:18:15.417Z,62.17
2023-04-30T05:19:15.405Z,61.66
2023-04-30T05:20:15.372Z,61.35
2023-04-30T05:21:15.366Z,61.22
2023-04-30T05:22:15.354Z,60.92
2023-04-30T05:23:15.370Z,60.69
2023-04-30T05:24:15.327Z,60.38
2023-04-30T05:25:15.339Z,60.76
2023-04-30T05:26:15.301Z,60.45
2023-04-30T05:27:15.303Z,60.12
2023-04-30T05:28:15.302Z,59.30
2023-04-30T05:29:15.289Z,59.33
2023-04-30T05:30:15.262Z,59.74
2023-04-30T05:31:15.257Z,59.12
2023-04-30T05:32:15.280Z,59.30
2023-04-30T05:33:15.291Z,58.87
2023-04-30T05:34:15.216Z,58.05
2023-04-30T05:35:15.210Z,58.05
2023-04-30T05:36:15.200Z,57.92
2023-04-30T05:37:15.193Z,58.30
2023-04-30T05:38:15.208Z,58.00
2023-04-30T05:39:15.169Z,57.26
2023-04-30T05:40:15.165Z,56.85
2023-04-30T05:41:15.268Z,57.16
2023-04-30T05:42:15.130Z,57.13
2023-04-30T05:43:15.152Z,56.93
2023-04-30T05:44:15.108Z,56.73
2023-04-30T05:45:15.098Z,56.60
2023-04-30T05:46:15.147Z,55.86
2023-04-30T05:47:15.083Z,55.05
2023-04-30T05:48:15.112Z,55.05
2023-04-30T05:49:15.055Z,54.54
2023-04-30T05:50:15.047Z,54.54
2023-04-30T05:51:15.043Z,55.96
2023-04-30T05:52:15.019Z,55.18
2023-04-30T05:53:15.074Z,55.27
2023-04-30T05:54:15.004Z,55.81
2023-04-30T05:55:14.995Z,56.73
2023-04-30T05:56:15.030Z,56.82
2023-04-30T05:57:14.993Z,56.52
2023-04-30T05:58:14.984Z,56.12
2023-04-30T05:59:14.957Z,56.32
2023-04-30T06:00:14.936Z,55.83
2023-04-30T06:01:14.932Z,56.01
2023-04-30T06:02:14.945Z,55.91
2023-04-30T06:03:14.981Z,55.53
2023-04-30T06:04:14.897Z,55.94
2023-04-30T06:05:16.195Z,55.91
2023-04-30T06:06:14.892Z,55.71
2023-04-30T06:07:14.860Z,55.20
2023-04-30T06:08:14.871Z,55.18
2023-04-30T06:09:14.848Z,55.27
2023-04-30T06:10:14.836Z,54.57
2023-04-30T06:11:14.818Z,54.79
2023-04-30T06:12:14.805Z,55.40
2023-04-30T06:13:14.954Z,55.94
2023-04-30T06:14:14.790Z,56.34
2023-04-30T06:15:14.789Z,56.55
2023-04-30T06:16:14.793Z,55.91
2023-04-30T06:17:14.753Z,55.83
2023-04-30T06:18:14.759Z,55.73
2023-04-30T06:19:14.731Z,55.81
2023-04-30T06:20:14.717Z,55.40
2023-04-30T06:21:14.729Z,54.57
2023-04-30T06:22:14.700Z,54.64
2023-04-30T06:23:14.715Z,54.21
2023-04-30T06:24:14.682Z,54.61
2023-04-30T06:25:14.681Z,54.00
2023-04-30T06:26:14.653Z,53.88
2023-04-30T06:27:14.653Z,53.58
2023-04-30T06:28:14.649Z,53.58
2023-04-30T06:29:14.720Z,53.47
2023-04-30T06:30:14.609Z,53.25
2023-04-30T06:31:14.641Z,52.81
2023-04-30T06:32:14.594Z,52.23
2023-04-30T06:33:14.594Z,52.20
2023-04-30T06:34:14.568Z,51.55
2023-04-30T06:35:14.562Z,51.25
2023-04-30T06:36:14.548Z,51.95
2023-04-30T06:37:14.540Z,51.65
2023-04-30T06:38:14.573Z,51.12
2023-04-30T06:39:14.518Z,50.11
2023-04-30T06:40:14.507Z,49.68
2023-04-30T06:41:14.493Z,49.66
2023-04-30T06:42:14.483Z,49.25
2023-04-30T06:43:14.485Z,49.05
2023-04-30T06:44:14.463Z,48.42
2023-04-30T06:45:14.474Z,48.42
2023-04-30T06:46:14.470Z,49.02
2023-04-30T06:47:14.494Z,49.01
2023-04-30T06:48:14.408Z,48.39
2023-04-30T06:49:14.413Z,48.37
2023-04-30T06:50:14.393Z,48.47
2023-04-30T06:51:14.387Z,48.27
2023-04-30T06:52:14.401Z,47.95
2023-04-30T06:53:14.364Z,46.94
2023-04-30T06:54:14.367Z,47.64
2023-04-30T06:55:14.347Z,46.84
2023-04-30T06:56:14.335Z,46.64
2023-04-30T06:57:14.351Z,46.81
2023-04-30T06:58:14.306Z,47.34
2023-04-30T06:59:14.299Z,46.01
2023-04-30T07:00:14.293Z,46.69
2023-04-30T07:01:14.313Z,46.65
2023-04-30T07:02:14.339Z,45.21
2023-04-30T07:03:14.403Z,44.49
2023-04-30T07:04:14.247Z,44.59
2023-04-30T07:05:14.237Z,44.27
2023-04-30T07:06:14.270Z,43.95
2023-04-30T07:07:14.221Z,43.42
2023-04-30T07:08:14.214Z,43.12
2023-04-30T07:09:14.191Z,41.79
2023-04-30T07:10:14.171Z,41.69
2023-04-30T07:11:14.168Z,41.59
2023-04-30T07:12:14.156Z,41.37
2023-04-30T07:13:14.183Z,41.35
2023-04-30T07:14:14.139Z,40.53
2023-04-30T07:15:14.124Z,40.73
2023-04-30T07:16:14.146Z,40.83
2023-04-30T07:17:14.229Z,40.73
2023-04-30T07:18:14.113Z,40.51
2023-04-30T07:19:14.089Z,40.31
2023-04-30T07:20:14.073Z,39.89
2023-04-30T07:21:14.061Z,39.09
2023-04-30T07:22:14.083Z,39.89
2023-04-30T07:23:14.052Z,40.09
2023-04-30T07:24:14.024Z,39.99
2023-04-30T07:25:14.016Z,40.27
2023-04-30T07:26:14.008Z,40.37
2023-04-30T07:27:13.997Z,39.97
2023-04-30T07:28:14.008Z,39.87
2023-04-30T07:29:13.971Z,40.17
2023-04-30T07:30:13.967Z,40.17
2023-04-30T07:31:13.992Z,39.97
2023-04-30T07:32:13.974Z,39.18
2023-04-30T07:33:14.025Z,39.49
2023-04-30T07:34:13.919Z,40.19
2023-04-30T07:35:13.908Z,39.47
2023-04-30T07:36:13.901Z,39.75
2023-04-30T07:37:13.908Z,39.05
2023-04-30T07:38:13.897Z,38.87
2023-04-30T07:39:13.870Z,40.29
2023-04-30T07:40:19.287Z,39.51
2023-04-30T07:41:14.849Z,39.11
2023-04-30T07:42:13.836Z,39.17
2023-04-30T07:43:13.842Z,39.07
2023-04-30T07:44:13.828Z,38.57
2023-04-30T07:45:13.812Z,39.05
2023-04-30T07:46:13.832Z,38.75
2023-04-30T07:47:13.788Z,38.25
2023-04-30T07:48:13.794Z,37.93
2023-04-30T07:49:13.782Z,37.61
2023-04-30T07:50:13.755Z,37.83
2023-04-30T07:51:13.744Z,37.92
2023-04-30T07:52:13.775Z,37.19
2023-04-30T07:53:13.747Z,37.21
2023-04-30T07:54:13.752Z,38.01
2023-04-30T07:55:13.721Z,37.31
2023-04-30T07:56:13.692Z,38.53
2023-04-30T07:57:13.698Z,38.13
2023-04-30T07:58:13.671Z,37.75
2023-04-30T07:59:13.666Z,37.63
2023-04-30T08:00:13.667Z,38.33
2023-04-30T08:01:13.642Z,37.83
2023-04-30T08:02:13.756Z,38.53
2023-04-30T08:03:13.818Z,38.31
2023-04-30T08:04:13.654Z,38.11
2023-04-30T08:05:13.616Z,37.70
2023-04-30T08:06:13.612Z,37.49
2023-04-30T08:07:13.596Z,37.10
2023-04-30T08:08:13.573Z,37.19
2023-04-30T08:09:13.575Z,37.08
2023-04-30T08:10:13.545Z,36.16
2023-04-30T08:11:13.569Z,36.06
2023-04-30T08:12:13.569Z,35.56
2023-04-30T08:13:13.519Z,35.44
2023-04-30T08:14:13.507Z,35.33
2023-04-30T08:15:13.502Z,35.31
2023-04-30T08:16:13.527Z,35.01
2023-04-30T08:17:13.529Z,35.39
2023-04-30T08:18:13.503Z,34.50
2023-04-30T08:19:13.459Z,34.71
2023-04-30T08:20:13.444Z,34.23
2023-04-30T08:21:13.453Z,34.73
2023-04-30T08:22:13.429Z,34.03
2023-04-30T08:23:13.439Z,34.01
2023-04-30T08:24:13.448Z,34.11
2023-04-30T08:25:13.411Z,34.11
2023-04-30T08:26:13.384Z,34.09
2023-04-30T08:27:13.376Z,34.59
2023-04-30T08:28:13.388Z,35.19
2023-04-30T08:29:13.380Z,34.61
2023-04-30T08:30:13.342Z,35.53
2023-04-30T08:31:13.353Z,34.63
2023-04-30T08:32:13.375Z,35.26
2023-04-30T08:33:13.379Z,36.06
2023-04-30T08:34:13.309Z,35.54
2023-04-30T08:35:13.349Z,34.64
2023-04-30T08:36:13.281Z,34.46
2023-04-30T08:37:13.289Z,34.25
2023-04-30T08:38:13.309Z,34.25
2023-04-30T08:39:13.305Z,34.93
2023-04-30T08:40:13.239Z,34.21
2023-04-30T08:41:13.259Z,33.20
2023-04-30T08:42:13.232Z,33.38
2023-04-30T08:43:13.224Z,32.40
2023-04-30T08:44:13.195Z,32.37
2023-04-30T08:45:13.185Z,32.67
2023-04-30T08:46:13.248Z,32.39
2023-04-30T08:47:13.257Z,32.59
2023-04-30T08:48:13.184Z,32.60
2023-04-30T08:49:13.162Z,33.42
2023-04-30T08:50:13.164Z,34.53
2023-04-30T08:51:13.125Z,33.51
2023-04-30T08:52:13.122Z,33.50
2023-04-30T08:53:13.120Z,32.30
2023-04-30T08:54:13.094Z,31.30
2023-04-30T08:55:13.092Z,31.40
2023-04-30T08:56:13.115Z,30.61
2023-04-30T08:57:13.076Z,30.71
2023-04-30T08:58:13.052Z,30.40
2023-04-30T08:59:13.041Z,30.38
2023-04-30T09:00:13.064Z,30.18
2023-04-30T09:01:13.039Z,30.29
2023-04-30T09:02:13.132Z,30.10
2023-04-30T09:03:13.076Z,29.68
2023-04-30T09:04:13.301Z,30.48
2023-04-30T09:05:12.977Z,30.18
2023-04-30T09:06:12.997Z,30.58
2023-04-30T09:07:12.978Z,31.19
2023-04-30T09:08:12.947Z,30.08
2023-04-30T09:09:12.955Z,30.19
2023-04-30T09:10:12.927Z,29.60
2023-04-30T09:11:12.921Z,29.48
2023-04-30T09:12:12.931Z,29.68
2023-04-30T09:13:12.913Z,29.97
2023-04-30T09:14:12.886Z,28.97
2023-04-30T09:15:12.878Z,27.58
2023-04-30T09:16:12.897Z,28.78
2023-04-30T09:17:20.029Z,29.01
2023-04-30T09:18:12.917Z,28.60
2023-04-30T09:19:12.844Z,28.50
2023-04-30T09:20:12.879Z,28.20
2023-04-30T09:21:12.817Z,28.90
2023-04-30T09:22:12.837Z,28.90
2023-04-30T09:23:12.793Z,28.88
2023-04-30T09:24:12.790Z,27.99
2023-04-30T09:25:12.797Z,28.69
2023-04-30T09:26:12.765Z,28.58
2023-04-30T09:27:12.840Z,29.18
2023-04-30T09:28:12.752Z,29.28
2023-04-30T09:29:12.745Z,29.68
2023-04-30T09:30:12.725Z,29.85
2023-04-30T09:31:12.733Z,28.86
2023-04-30T09:32:12.740Z,27.75
2023-04-30T09:33:12.744Z,28.38
2023-04-30T09:34:12.690Z,28.88
2023-04-30T09:35:12.679Z,28.70
2023-04-30T09:36:12.675Z,29.00
2023-04-30T09:37:12.707Z,30.68
2023-04-30T09:38:12.643Z,30.19
2023-04-30T09:39:14.889Z,29.81
2023-04-30T09:40:12.618Z,30.21
2023-04-30T09:41:12.625Z,29.61
2023-04-30T09:42:12.632Z,29.22
2023-04-30T09:43:12.588Z,29.14
2023-04-30T09:44:12.589Z,28.73
2023-04-30T09:45:12.576Z,27.92
2023-04-30T09:46:12.595Z,28.81
2023-04-30T09:47:12.758Z,28.50
2023-04-30T09:48:17.264Z,28.49
2023-04-30T09:49:13.533Z,29.10
2023-04-30T09:50:12.518Z,29.80
2023-04-30T09:51:12.608Z,30.29
2023-04-30T09:52:12.527Z,29.48
2023-04-30T09:53:12.508Z,28.88
2023-04-30T09:54:12.485Z,28.78
2023-04-30T09:55:12.477Z,28.80
2023-04-30T09:56:12.456Z,28.09
2023-04-30T09:57:13.224Z,28.19
2023-04-30T09:58:12.440Z,28.09
2023-04-30T09:59:12.430Z,27.72
2023-04-30T10:00:12.429Z,27.81
2023-04-30T10:01:12.426Z,27.42
2023-04-30T10:02:12.419Z,28.10
2023-04-30T10:03:12.492Z,28.12
2023-04-30T10:04:12.407Z,28.42
2023-04-30T10:05:12.372Z,28.42
2023-04-30T10:06:12.389Z,28.64
2023-04-30T10:07:14.831Z,28.33
2023-04-30T10:08:12.340Z,28.50
2023-04-30T10:09:12.335Z,27.69
2023-04-30T10:10:12.332Z,27.39
2023-04-30T10:11:12.306Z,27.29
2023-04-30T10:12:12.330Z,27.56
2023-04-30T10:13:12.398Z,26.87
2023-04-30T10:14:12.320Z,26.17
2023-04-30T10:15:12.301Z,25.66
2023-04-30T10:16:12.329Z,26.04
2023-04-30T10:17:12.266Z,25.74
2023-04-30T10:18:12.302Z,26.56
2023-04-30T10:19:12.327Z,26.27
2023-04-30T10:20:12.215Z,26.48
2023-04-30T10:21:12.284Z,26.21
2023-04-30T10:22:12.195Z,27.73
2023-04-30T10:23:12.240Z,29.36
2023-04-30T10:24:12.257Z,29.51
2023-04-30T10:25:12.161Z,30.85
2023-04-30T10:26:12.164Z,32.07
2023-04-30T10:27:12.162Z,32.29
2023-04-30T10:28:12.156Z,32.52
2023-04-30T10:29:12.145Z,32.84
2023-04-30T10:30:12.151Z,31.54
2023-04-30T10:31:12.118Z,33.07
2023-04-30T10:32:12.179Z,32.76
2023-04-30T10:33:13.592Z,33.08
2023-04-30T10:34:12.072Z,32.68
2023-04-30T10:35:12.118Z,33.50
2023-04-30T10:36:12.076Z,34.51
2023-04-30T10:37:12.084Z,33.70
2023-04-30T10:38:12.209Z,35.13
2023-04-30T10:39:12.032Z,34.24
2023-04-30T10:40:12.017Z,33.23
2023-04-30T10:41:11.998Z,33.73
2023-04-30T10:42:12.015Z,34.44
2023-04-30T10:43:11.999Z,34.66
2023-04-30T10:44:11.965Z,35.36
2023-04-30T10:45:11.974Z,36.30
2023-04-30T10:46:11.989Z,36.81
2023-04-30T10:47:11.932Z,37.73
2023-04-30T10:48:12.041Z,38.32
2023-04-30T10:49:11.921Z,37.53
2023-04-30T10:50:11.923Z,36.82
2023-04-30T10:51:11.910Z,35.90
2023-04-30T10:52:11.882Z,35.41
2023-04-30T10:53:11.881Z,37.13
2023-04-30T10:54:11.970Z,37.63
2023-04-30T10:55:11.860Z,37.53
2023-04-30T10:56:11.836Z,38.06
2023-04-30T10:57:11.823Z,37.24
2023-04-30T10:58:11.832Z,37.04
2023-04-30T10:59:11.804Z,37.04
2023-04-30T11:00:11.830Z,38.06
2023-04-30T11:01:11.839Z,37.04
2023-04-30T11:02:11.784Z,35.73
2023-04-30T11:03:11.830Z,37.26
2023-04-30T11:04:11.751Z,37.26
2023-04-30T11:05:11.943Z,37.77
2023-04-30T11:06:11.766Z,37.45
2023-04-30T11:07:11.767Z,38.06
2023-04-30T11:08:11.748Z,38.37
2023-04-30T11:09:11.695Z,37.46
2023-04-30T11:10:11.701Z,38.28
2023-04-30T11:11:11.690Z,38.28
2023-04-30T11:12:11.686Z,37.68
2023-04-30T11:13:11.659Z,38.07
2023-04-30T11:14:11.652Z,39.50
2023-04-30T11:15:11.644Z,39.10
2023-04-30T11:16:11.861Z,39.50
2023-04-30T11:17:11.740Z,41.02
2023-04-30T11:18:11.675Z,41.02
2023-04-30T11:19:11.873Z,39.89
2023-04-30T11:20:11.691Z,39.39
2023-04-30T11:21:11.571Z,38.48
2023-04-30T11:22:11.596Z,37.57
2023-04-30T11:23:11.546Z,37.66
2023-04-30T11:24:11.569Z,38.09
2023-04-30T11:25:11.528Z,38.59
2023-04-30T11:26:11.552Z,37.99
2023-04-30T11:27:11.515Z,38.11
2023-04-30T11:28:11.515Z,38.82
2023-04-30T11:29:11.637Z,38.82
2023-04-30T11:30:11.548Z,40.33
2023-04-30T11:31:13.019Z,40.66
2023-04-30T11:32:11.474Z,41.06
2023-04-30T11:33:11.458Z,40.66
2023-04-30T11:34:11.453Z,39.44
2023-04-30T11:35:11.419Z,39.56
2023-04-30T11:36:11.408Z,39.54
2023-04-30T11:37:11.424Z,40.66
2023-04-30T11:38:11.390Z,40.95
2023-04-30T11:39:11.372Z,40.75
2023-04-30T11:40:11.467Z,40.75
2023-04-30T11:41:11.355Z,40.86
2023-04-30T11:42:11.377Z,40.35
2023-04-30T11:43:11.329Z,40.03
2023-04-30T11:44:11.320Z,40.95
2023-04-30T11:45:11.310Z,40.94
2023-04-30T11:46:11.439Z,42.07
2023-04-30T11:47:11.350Z,41.04
2023-04-30T11:48:11.300Z,40.73
2023-04-30T11:49:11.290Z,39.62
2023-04-30T11:50:11.264Z,39.32
2023-04-30T11:51:11.242Z,39.52
2023-04-30T11:52:11.250Z,39.32
2023-04-30T11:53:11.243Z,38.51
2023-04-30T11:54:11.215Z,38.63
2023-04-30T11:55:11.205Z,38.43
2023-04-30T11:56:11.189Z,38.43
2023-04-30T11:57:11.207Z,39.34
2023-04-30T11:58:11.176Z,39.44
2023-04-30T11:59:11.208Z,40.25
2023-04-30T12:00:11.157Z,39.44
2023-04-30T12:01:11.142Z,40.66
2023-04-30T12:02:13.558Z,39.54
2023-04-30T12:03:11.236Z,40.05
2023-04-30T12:04:11.290Z,38.93
2023-04-30T12:05:11.112Z,39.76
2023-04-30T12:06:11.129Z,40.27
2023-04-30T12:07:11.126Z,41.16
2023-04-30T12:08:11.069Z,40.67
2023-04-30T12:09:11.076Z,41.06
2023-04-30T12:10:11.048Z,41.06
2023-04-30T12:11:11.032Z,40.66
2023-04-30T12:12:11.035Z,41.87
2023-04-30T12:13:11.023Z,41.77
2023-04-30T12:14:11.023Z,39.93
2023-04-30T12:15:10.985Z,40.13
2023-04-30T12:16:11.014Z,40.13
2023-04-30T12:17:10.974Z,40.84
2023-04-30T12:18:11.011Z,38.82
2023-04-30T12:19:10.938Z,38.71
2023-04-30T12:20:10.930Z,39.84
2023-04-30T12:21:10.942Z,39.34
2023-04-30T12:22:10.928Z,39.46
2023-04-30T12:23:10.902Z,40.98
2023-04-30T12:24:10.886Z,40.45
2023-04-30T12:25:10.875Z,40.86
2023-04-30T12:26:10.868Z,40.75
2023-04-30T12:27:10.908Z,40.15
2023-04-30T12:28:10.851Z,40.45
2023-04-30T12:29:12.678Z,40.15
2023-04-30T12:30:10.822Z,37.01
2023-04-30T12:31:10.862Z,35.60
2023-04-30T12:32:10.894Z,35.60
2023-04-30T12:33:10.857Z,35.90
2023-04-30T12:34:10.777Z,35.92
2023-04-30T12:35:10.853Z,36.02
2023-04-30T12:36:10.758Z,35.41
2023-04-30T12:37:10.826Z,35.41
2023-04-30T12:38:10.747Z,35.51
2023-04-30T12:39:10.724Z,36.43
2023-04-30T12:40:10.715Z,36.93
2023-04-30T12:41:10.703Z,37.54
2023-04-30T12:42:10.712Z,39.06
2023-04-30T12:43:10.679Z,38.65
2023-04-30T12:44:10.678Z,39.76
2023-04-30T12:45:10.678Z,39.06
2023-04-30T12:46:10.663Z,37.74
2023-04-30T12:47:10.701Z,37.94
2023-04-30T12:48:10.692Z,38.75
2023-04-30T12:49:10.615Z,38.35
2023-04-30T12:50:10.605Z,39.15
2023-04-30T12:51:10.622Z,39.97
2023-04-30T12:52:10.601Z,38.24